Terminal Aerodrome Forecast
Issued by NWS Sterling, VA

Current Version | Previous Version | Graphics & Text | Print | Product List | Glossary On
Versions: 1 2 3 4 5 6 7 8 9 10 11 12 13 14 15 16 17 18 19 20 21 22 23 24 25
000
FTUS41 KLWX 271125
TAFDCA
TAF
KDCA 271125Z 2712/2812 07009KT P6SM -SHRA OVC008
     FM271600 08008KT P6SM OVC015
     FM272000 09006KT P6SM OVC025
     FM272300 09006KT P6SM OVC020
     FM280300 VRB03KT P6SM OVC010=

USA.gov is the U.S. government's official web portal to all federal, state and local government web resources and services.